sensor_id;sensor_type;location;lat;lon;timestamp;P1;durP1;ratioP1;P2;durP2;ratioP2
67556;SDS011;54387;53.526;49.300;2023-06-24T00:02:17;9.02;;;4.80;;
67556;SDS011;54387;53.526;49.300;2023-06-24T00:04:43;9.55;;;4.32;;
67556;SDS011;54387;53.526;49.300;2023-06-24T00:07:09;8.68;;;4.75;;
67556;SDS011;54387;53.526;49.300;2023-06-24T00:09:36;8.00;;;4.32;;
67556;SDS011;54387;53.526;49.300;2023-06-24T00:12:02;6.43;;;4.45;;
67556;SDS011;54387;53.526;49.300;2023-06-24T00:14:29;7.68;;;4.70;;
67556;SDS011;54387;53.526;49.300;2023-06-24T00:16:56;8.55;;;4.40;;
67556;SDS011;54387;53.526;49.300;2023-06-24T00:19:23;7.85;;;4.70;;
67556;SDS011;54387;53.526;49.300;2023-06-24T00:21:51;6.72;;;4.40;;
67556;SDS011;54387;53.526;49.300;2023-06-24T00:24:19;8.23;;;4.85;;
67556;SDS011;54387;53.526;49.300;2023-06-24T00:26:46;6.40;;;4.53;;
67556;SDS011;54387;53.526;49.300;2023-06-24T00:29:13;9.65;;;5.20;;
67556;SDS011;54387;53.526;49.300;2023-06-24T00:31:40;8.35;;;4.38;;
67556;SDS011;54387;53.526;49.300;2023-06-24T00:34:07;8.30;;;4.55;;
67556;SDS011;54387;53.526;49.300;2023-06-24T00:36:33;11.40;;;5.10;;
67556;SDS011;54387;53.526;49.300;2023-06-24T00:39:03;9.05;;;5.03;;
67556;SDS011;54387;53.526;49.300;2023-06-24T00:41:34;8.20;;;4.70;;
67556;SDS011;54387;53.526;49.300;2023-06-24T00:44:00;8.98;;;4.80;;
67556;SDS011;54387;53.526;49.300;2023-06-24T00:46:27;7.47;;;4.50;;
67556;SDS011;54387;53.526;49.300;2023-06-24T00:48:54;8.10;;;5.03;;
67556;SDS011;54387;53.526;49.300;2023-06-24T00:51:21;10.60;;;5.25;;
67556;SDS011;54387;53.526;49.300;2023-06-24T00:53:59;11.00;;;5.07;;
67556;SDS011;54387;53.526;49.300;2023-06-24T00:56:28;11.52;;;4.78;;
67556;SDS011;54387;53.526;49.300;2023-06-24T00:59:00;12.10;;;5.20;;
67556;SDS011;54387;53.526;49.300;2023-06-24T01:01:29;8.50;;;4.45;;
67556;SDS011;54387;53.526;49.300;2023-06-24T01:04:01;28.30;;;6.38;;
67556;SDS011;54387;53.526;49.300;2023-06-24T01:06:28;8.02;;;4.88;;
67556;SDS011;54387;53.526;49.300;2023-06-24T01:08:58;9.60;;;4.40;;
67556;SDS011;54387;53.526;49.300;2023-06-24T01:11:26;25.90;;;5.88;;
67556;SDS011;54387;53.526;49.300;2023-06-24T01:13:52;10.13;;;4.82;;
67556;SDS011;54387;53.526;49.300;2023-06-24T01:16:23;16.65;;;5.90;;
67556;SDS011;54387;53.526;49.300;2023-06-24T01:18:57;17.27;;;5.55;;
67556;SDS011;54387;53.526;49.300;2023-06-24T01:24:21;10.95;;;4.90;;
67556;SDS011;54387;53.526;49.300;2023-06-24T01:27:22;10.75;;;4.85;;
67556;SDS011;54387;53.526;49.300;2023-06-24T01:29:52;7.53;;;4.63;;
67556;SDS011;54387;53.526;49.300;2023-06-24T01:32:33;8.70;;;4.93;;
67556;SDS011;54387;53.526;49.300;2023-06-24T01:35:07;7.88;;;4.93;;
67556;SDS011;54387;53.526;49.300;2023-06-24T01:37:38;12.48;;;5.68;;
67556;SDS011;54387;53.526;49.300;2023-06-24T01:42:44;9.32;;;4.93;;
67556;SDS011;54387;53.526;49.300;2023-06-24T01:45:16;8.23;;;4.70;;
67556;SDS011;54387;53.526;49.300;2023-06-24T01:48:03;8.30;;;5.10;;
67556;SDS011;54387;53.526;49.300;2023-06-24T01:50:33;8.35;;;5.00;;
67556;SDS011;54387;53.526;49.300;2023-06-24T01:53:04;9.15;;;5.03;;
67556;SDS011;54387;53.526;49.300;2023-06-24T01:55:33;9.63;;;5.38;;
67556;SDS011;54387;53.526;49.300;2023-06-24T01:58:02;9.23;;;5.82;;
67556;SDS011;54387;53.526;49.300;2023-06-24T02:00:31;7.72;;;5.47;;
67556;SDS011;54387;53.526;49.300;2023-06-24T02:02:59;10.10;;;5.45;;
67556;SDS011;54387;53.526;49.300;2023-06-24T02:05:26;8.15;;;5.53;;
67556;SDS011;54387;53.526;49.300;2023-06-24T02:07:53;8.35;;;5.18;;
67556;SDS011;54387;53.526;49.300;2023-06-24T02:10:21;7.63;;;4.88;;
67556;SDS011;54387;53.526;49.300;2023-06-24T02:12:49;8.32;;;4.57;;
67556;SDS011;54387;53.526;49.300;2023-06-24T02:15:18;7.10;;;5.00;;
67556;SDS011;54387;53.526;49.300;2023-06-24T02:17:46;10.05;;;5.32;;
67556;SDS011;54387;53.526;49.300;2023-06-24T02:20:16;7.35;;;4.70;;
67556;SDS011;54387;53.526;49.300;2023-06-24T02:22:44;6.80;;;4.07;;
67556;SDS011;54387;53.526;49.300;2023-06-24T02:25:11;6.95;;;4.35;;
67556;SDS011;54387;53.526;49.300;2023-06-24T02:27:38;10.80;;;4.43;;
67556;SDS011;54387;53.526;49.300;2023-06-24T02:30:06;6.75;;;4.13;;
67556;SDS011;54387;53.526;49.300;2023-06-24T02:32:33;5.22;;;4.07;;
67556;SDS011;54387;53.526;49.300;2023-06-24T02:35:04;7.07;;;4.20;;
67556;SDS011;54387;53.526;49.300;2023-06-24T02:37:32;6.70;;;4.10;;
67556;SDS011;54387;53.526;49.300;2023-06-24T02:39:59;6.38;;;4.22;;
67556;SDS011;54387;53.526;49.300;2023-06-24T02:42:26;7.07;;;4.05;;
67556;SDS011;54387;53.526;49.300;2023-06-24T02:44:52;7.10;;;4.10;;
67556;SDS011;54387;53.526;49.300;2023-06-24T02:47:19;6.53;;;4.53;;
67556;SDS011;54387;53.526;49.300;2023-06-24T02:49:47;8.90;;;4.00;;
67556;SDS011;54387;53.526;49.300;2023-06-24T02:52:15;6.05;;;3.63;;
67556;SDS011;54387;53.526;49.300;2023-06-24T02:54:41;7.15;;;4.20;;
67556;SDS011;54387;53.526;49.300;2023-06-24T02:57:08;6.32;;;4.05;;
67556;SDS011;54387;53.526;49.300;2023-06-24T02:59:36;7.47;;;4.18;;
67556;SDS011;54387;53.526;49.300;2023-06-24T03:02:03;6.63;;;4.18;;
67556;SDS011;54387;53.526;49.300;2023-06-24T03:04:30;7.13;;;4.43;;
67556;SDS011;54387;53.526;49.300;2023-06-24T03:06:57;7.25;;;3.97;;
67556;SDS011;54387;53.526;49.300;2023-06-24T03:09:26;10.65;;;4.35;;
67556;SDS011;54387;53.526;49.300;2023-06-24T03:11:52;5.70;;;4.15;;
67556;SDS011;54387;53.526;49.300;2023-06-24T03:14:19;7.80;;;4.30;;
67556;SDS011;54387;53.526;49.300;2023-06-24T03:16:45;5.97;;;3.80;;
67556;SDS011;54387;53.526;49.300;2023-06-24T03:19:11;4.40;;;3.35;;
67556;SDS011;54387;53.526;49.300;2023-06-24T03:21:37;6.63;;;3.60;;
67556;SDS011;54387;53.526;49.300;2023-06-24T03:24:04;5.43;;;3.65;;
67556;SDS011;54387;53.526;49.300;2023-06-24T03:26:34;5.97;;;3.47;;
67556;SDS011;54387;53.526;49.300;2023-06-24T03:29:01;7.43;;;3.58;;
67556;SDS011;54387;53.526;49.300;2023-06-24T03:31:27;4.68;;;3.42;;
67556;SDS011;54387;53.526;49.300;2023-06-24T03:33:54;5.45;;;3.47;;
67556;SDS011;54387;53.526;49.300;2023-06-24T03:36:20;5.88;;;3.65;;
67556;SDS011;54387;53.526;49.300;2023-06-24T03:38:47;5.63;;;3.70;;
67556;SDS011;54387;53.526;49.300;2023-06-24T03:41:13;6.78;;;3.83;;
67556;SDS011;54387;53.526;49.300;2023-06-24T03:43:39;5.72;;;3.45;;
67556;SDS011;54387;53.526;49.300;2023-06-24T03:46:07;5.57;;;3.40;;
67556;SDS011;54387;53.526;49.300;2023-06-24T03:48:34;4.60;;;3.38;;
67556;SDS011;54387;53.526;49.300;2023-06-24T03:51:01;5.18;;;3.20;;
67556;SDS011;54387;53.526;49.300;2023-06-24T03:53:27;6.38;;;3.20;;
67556;SDS011;54387;53.526;49.300;2023-06-24T03:55:53;4.03;;;3.10;;
67556;SDS011;54387;53.526;49.300;2023-06-24T03:58:19;4.32;;;2.85;;
67556;SDS011;54387;53.526;49.300;2023-06-24T04:00:46;4.03;;;2.90;;
67556;SDS011;54387;53.526;49.300;2023-06-24T04:03:15;4.43;;;2.63;;
67556;SDS011;54387;53.526;49.300;2023-06-24T04:05:44;4.07;;;2.97;;
67556;SDS011;54387;53.526;49.300;2023-06-24T04:08:11;5.68;;;2.70;;
67556;SDS011;54387;53.526;49.300;2023-06-24T04:10:37;3.67;;;2.65;;
67556;SDS011;54387;53.526;49.300;2023-06-24T04:13:03;3.35;;;2.50;;
67556;SDS011;54387;53.526;49.300;2023-06-24T04:15:30;6.40;;;2.97;;
67556;SDS011;54387;53.526;49.300;2023-06-24T04:17:56;3.25;;;2.15;;
67556;SDS011;54387;53.526;49.300;2023-06-24T04:20:23;4.10;;;2.30;;
67556;SDS011;54387;53.526;49.300;2023-06-24T04:22:49;2.60;;;2.13;;
67556;SDS011;54387;53.526;49.300;2023-06-24T04:25:16;3.53;;;2.17;;
67556;SDS011;54387;53.526;49.300;2023-06-24T04:27:42;4.30;;;2.50;;
67556;SDS011;54387;53.526;49.300;2023-06-24T04:30:08;4.10;;;2.30;;
67556;SDS011;54387;53.526;49.300;2023-06-24T04:32:35;5.35;;;2.67;;
67556;SDS011;54387;53.526;49.300;2023-06-24T04:35:01;3.28;;;2.40;;
67556;SDS011;54387;53.526;49.300;2023-06-24T04:37:28;3.67;;;2.20;;
67556;SDS011;54387;53.526;49.300;2023-06-24T04:39:54;4.68;;;2.53;;
67556;SDS011;54387;53.526;49.300;2023-06-24T04:42:20;6.00;;;2.63;;
67556;SDS011;54387;53.526;49.300;2023-06-24T04:44:48;4.85;;;2.38;;
67556;SDS011;54387;53.526;49.300;2023-06-24T04:47:17;6.05;;;2.53;;
67556;SDS011;54387;53.526;49.300;2023-06-24T04:49:44;4.35;;;2.80;;
67556;SDS011;54387;53.526;49.300;2023-06-24T04:52:10;4.97;;;2.70;;
67556;SDS011;54387;53.526;49.300;2023-06-24T04:54:37;3.20;;;2.30;;
67556;SDS011;54387;53.526;49.300;2023-06-24T04:57:05;3.38;;;2.22;;
67556;SDS011;54387;53.526;49.300;2023-06-24T04:59:33;3.60;;;2.25;;
67556;SDS011;54387;53.526;49.300;2023-06-24T05:02:00;4.40;;;2.33;;
67556;SDS011;54387;53.526;49.300;2023-06-24T05:04:26;3.83;;;2.30;;
67556;SDS011;54387;53.526;49.300;2023-06-24T05:06:52;3.60;;;2.70;;
67556;SDS011;54387;53.526;49.300;2023-06-24T05:09:19;4.45;;;2.30;;
67556;SDS011;54387;53.526;49.300;2023-06-24T05:11:45;2.90;;;2.30;;
67556;SDS011;54387;53.526;49.300;2023-06-24T05:14:11;4.45;;;2.20;;
67556;SDS011;54387;53.526;49.300;2023-06-24T05:16:39;6.03;;;2.67;;
67556;SDS011;54387;53.526;49.300;2023-06-24T05:19:05;4.18;;;2.20;;
67556;SDS011;54387;53.526;49.300;2023-06-24T05:21:31;3.97;;;2.00;;
67556;SDS011;54387;53.526;49.300;2023-06-24T05:23:57;2.72;;;2.13;;
67556;SDS011;54387;53.526;49.300;2023-06-24T05:26:24;7.00;;;2.50;;
67556;SDS011;54387;53.526;49.300;2023-06-24T05:28:50;5.35;;;2.20;;
67556;SDS011;54387;53.526;49.300;2023-06-24T05:31:16;3.20;;;2.50;;
67556;SDS011;54387;53.526;49.300;2023-06-24T05:33:43;4.90;;;2.10;;
67556;SDS011;54387;53.526;49.300;2023-06-24T05:36:12;3.00;;;2.10;;
67556;SDS011;54387;53.526;49.300;2023-06-24T05:38:38;2.92;;;2.28;;
67556;SDS011;54387;53.526;49.300;2023-06-24T05:41:05;3.78;;;2.47;;
67556;SDS011;54387;53.526;49.300;2023-06-24T05:43:31;2.88;;;2.40;;
67556;SDS011;54387;53.526;49.300;2023-06-24T05:45:58;4.47;;;2.35;;
67556;SDS011;54387;53.526;49.300;2023-06-24T05:48:24;2.80;;;2.47;;
67556;SDS011;54387;53.526;49.300;2023-06-24T05:50:50;3.47;;;2.53;;
67556;SDS011;54387;53.526;49.300;2023-06-24T05:53:16;3.08;;;2.53;;
67556;SDS011;54387;53.526;49.300;2023-06-24T05:55:43;4.88;;;2.15;;
67556;SDS011;54387;53.526;49.300;2023-06-24T05:58:10;4.10;;;2.35;;
67556;SDS011;54387;53.526;49.300;2023-06-24T06:00:36;3.30;;;2.40;;
67556;SDS011;54387;53.526;49.300;2023-06-24T06:03:03;4.00;;;2.88;;
67556;SDS011;54387;53.526;49.300;2023-06-24T06:05:29;3.38;;;2.40;;
67556;SDS011;54387;53.526;49.300;2023-06-24T06:07:55;3.65;;;2.72;;
67556;SDS011;54387;53.526;49.300;2023-06-24T06:10:21;2.55;;;2.00;;
67556;SDS011;54387;53.526;49.300;2023-06-24T06:12:49;6.63;;;3.00;;
67556;SDS011;54387;53.526;49.300;2023-06-24T06:15:16;2.78;;;2.30;;
67556;SDS011;54387;53.526;49.300;2023-06-24T06:17:42;2.70;;;2.13;;
67556;SDS011;54387;53.526;49.300;2023-06-24T06:20:08;3.55;;;2.35;;
67556;SDS011;54387;53.526;49.300;2023-06-24T06:22:35;4.85;;;2.35;;
67556;SDS011;54387;53.526;49.300;2023-06-24T06:25:04;3.80;;;2.22;;
67556;SDS011;54387;53.526;49.300;2023-06-24T06:27:31;3.97;;;2.20;;
67556;SDS011;54387;53.526;49.300;2023-06-24T06:29:57;2.63;;;1.92;;
67556;SDS011;54387;53.526;49.300;2023-06-24T06:32:24;5.72;;;1.92;;
67556;SDS011;54387;53.526;49.300;2023-06-24T06:34:50;3.53;;;2.65;;
67556;SDS011;54387;53.526;49.300;2023-06-24T06:37:17;3.30;;;2.50;;
67556;SDS011;54387;53.526;49.300;2023-06-24T06:39:43;2.78;;;2.20;;
67556;SDS011;54387;53.526;49.300;2023-06-24T06:42:09;4.30;;;2.20;;
67556;SDS011;54387;53.526;49.300;2023-06-24T06:44:40;6.22;;;2.33;;
67556;SDS011;54387;53.526;49.300;2023-06-24T06:47:06;3.30;;;2.25;;
67556;SDS011;54387;53.526;49.300;2023-06-24T06:49:33;3.38;;;2.40;;
67556;SDS011;54387;53.526;49.300;2023-06-24T06:51:59;2.80;;;2.28;;
67556;SDS011;54387;53.526;49.300;2023-06-24T06:54:25;2.85;;;2.50;;
67556;SDS011;54387;53.526;49.300;2023-06-24T06:56:51;2.75;;;2.22;;
67556;SDS011;54387;53.526;49.300;2023-06-24T06:59:17;7.40;;;2.40;;
67556;SDS011;54387;53.526;49.300;2023-06-24T07:01:44;3.63;;;2.10;;
67556;SDS011;54387;53.526;49.300;2023-06-24T07:04:10;5.03;;;2.50;;
67556;SDS011;54387;53.526;49.300;2023-06-24T07:06:36;3.15;;;2.33;;
67556;SDS011;54387;53.526;49.300;2023-06-24T07:09:04;4.13;;;2.05;;
67556;SDS011;54387;53.526;49.300;2023-06-24T07:11:30;4.38;;;2.45;;
67556;SDS011;54387;53.526;49.300;2023-06-24T07:13:56;2.80;;;2.00;;
67556;SDS011;54387;53.526;49.300;2023-06-24T07:16:22;3.70;;;2.30;;
67556;SDS011;54387;53.526;49.300;2023-06-24T07:18:49;3.33;;;2.50;;
67556;SDS011;54387;53.526;49.300;2023-06-24T07:21:15;3.67;;;2.45;;
67556;SDS011;54387;53.526;49.300;2023-06-24T07:23:41;2.58;;;1.92;;
67556;SDS011;54387;53.526;49.300;2023-06-24T07:26:08;5.57;;;2.63;;
67556;SDS011;54387;53.526;49.300;2023-06-24T07:28:34;2.83;;;2.03;;
67556;SDS011;54387;53.526;49.300;2023-06-24T07:31:01;4.93;;;2.25;;
67556;SDS011;54387;53.526;49.300;2023-06-24T07:33:28;4.18;;;2.42;;
67556;SDS011;54387;53.526;49.300;2023-06-24T07:35:56;4.15;;;1.98;;
67556;SDS011;54387;53.526;49.300;2023-06-24T07:38:23;2.65;;;2.00;;
67556;SDS011;54387;53.526;49.300;2023-06-24T07:40:49;3.15;;;2.22;;
67556;SDS011;54387;53.526;49.300;2023-06-24T07:43:16;3.65;;;2.05;;
67556;SDS011;54387;53.526;49.300;2023-06-24T07:45:43;2.63;;;1.90;;
67556;SDS011;54387;53.526;49.300;2023-06-24T07:48:10;2.70;;;2.10;;
67556;SDS011;54387;53.526;49.300;2023-06-24T07:50:37;2.50;;;2.10;;
67556;SDS011;54387;53.526;49.300;2023-06-24T07:53:03;3.70;;;2.00;;
67556;SDS011;54387;53.526;49.300;2023-06-24T07:55:30;4.13;;;2.08;;
67556;SDS011;54387;53.526;49.300;2023-06-24T07:57:56;5.35;;;2.03;;
67556;SDS011;54387;53.526;49.300;2023-06-24T08:00:25;4.50;;;2.00;;
67556;SDS011;54387;53.526;49.300;2023-06-24T08:02:52;3.55;;;2.50;;
67556;SDS011;54387;53.526;49.300;2023-06-24T08:05:19;2.47;;;1.88;;
67556;SDS011;54387;53.526;49.300;2023-06-24T08:07:46;3.28;;;1.95;;
67556;SDS011;54387;53.526;49.300;2023-06-24T08:10:12;2.88;;;1.70;;
67556;SDS011;54387;53.526;49.300;2023-06-24T08:12:38;3.20;;;1.88;;
67556;SDS011;54387;53.526;49.300;2023-06-24T08:15:05;2.35;;;1.90;;
67556;SDS011;54387;53.526;49.300;2023-06-24T08:17:32;4.13;;;1.85;;
67556;SDS011;54387;53.526;49.300;2023-06-24T08:19:59;2.75;;;2.08;;
67556;SDS011;54387;53.526;49.300;2023-06-24T08:22:25;2.25;;;2.00;;
67556;SDS011;54387;53.526;49.300;2023-06-24T08:24:52;2.38;;;2.13;;
67556;SDS011;54387;53.526;49.300;2023-06-24T08:27:18;2.00;;;1.73;;
67556;SDS011;54387;53.526;49.300;2023-06-24T08:29:44;2.72;;;1.92;;
67556;SDS011;54387;53.526;49.300;2023-06-24T08:32:10;2.03;;;1.80;;
67556;SDS011;54387;53.526;49.300;2023-06-24T08:34:36;2.33;;;1.88;;
67556;SDS011;54387;53.526;49.300;2023-06-24T08:37:03;2.90;;;1.90;;
67556;SDS011;54387;53.526;49.300;2023-06-24T08:39:29;2.17;;;1.70;;
67556;SDS011;54387;53.526;49.300;2023-06-24T08:41:56;2.83;;;2.10;;
67556;SDS011;54387;53.526;49.300;2023-06-24T08:44:22;2.08;;;1.75;;
67556;SDS011;54387;53.526;49.300;2023-06-24T08:46:48;2.28;;;2.03;;
67556;SDS011;54387;53.526;49.300;2023-06-24T08:52:14;2.95;;;1.73;;
67556;SDS011;54387;53.526;49.300;2023-06-24T08:54:42;2.08;;;1.77;;
67556;SDS011;54387;53.526;49.300;2023-06-24T08:57:12;2.35;;;1.95;;
67556;SDS011;54387;53.526;49.300;2023-06-24T08:59:41;2.30;;;1.90;;
67556;SDS011;54387;53.526;49.300;2023-06-24T09:02:08;2.30;;;1.80;;
67556;SDS011;54387;53.526;49.300;2023-06-24T09:04:34;2.25;;;1.90;;
67556;SDS011;54387;53.526;49.300;2023-06-24T09:07:00;2.65;;;2.13;;
67556;SDS011;54387;53.526;49.300;2023-06-24T09:09:27;2.83;;;2.40;;
67556;SDS011;54387;53.526;49.300;2023-06-24T09:11:58;2.75;;;2.10;;
67556;SDS011;54387;53.526;49.300;2023-06-24T09:14:26;2.70;;;2.20;;
67556;SDS011;54387;53.526;49.300;2023-06-24T09:16:55;2.75;;;2.03;;
67556;SDS011;54387;53.526;49.300;2023-06-24T09:19:29;4.35;;;2.42;;
67556;SDS011;54387;53.526;49.300;2023-06-24T09:21:56;2.47;;;2.22;;
67556;SDS011;54387;53.526;49.300;2023-06-24T09:24:31;6.80;;;2.63;;
67556;SDS011;54387;53.526;49.300;2023-06-24T09:26:58;3.83;;;2.35;;
67556;SDS011;54387;53.526;49.300;2023-06-24T09:29:28;3.10;;;2.00;;
67556;SDS011;54387;53.526;49.300;2023-06-24T09:31:57;3.13;;;2.53;;
67556;SDS011;54387;53.526;49.300;2023-06-24T09:34:25;4.93;;;2.80;;
67556;SDS011;54387;53.526;49.300;2023-06-24T09:36:54;3.50;;;2.35;;
67556;SDS011;54387;53.526;49.300;2023-06-24T09:39:25;2.88;;;2.50;;
67556;SDS011;54387;53.526;49.300;2023-06-24T09:41:56;9.48;;;3.10;;
67556;SDS011;54387;53.526;49.300;2023-06-24T09:44:22;3.75;;;2.50;;
67556;SDS011;54387;53.526;49.300;2023-06-24T09:46:49;4.85;;;2.78;;
67556;SDS011;54387;53.526;49.300;2023-06-24T09:49:15;6.00;;;2.70;;
67556;SDS011;54387;53.526;49.300;2023-06-24T09:51:45;2.78;;;2.53;;
67556;SDS011;54387;53.526;49.300;2023-06-24T09:54:14;4.97;;;2.97;;
67556;SDS011;54387;53.526;49.300;2023-06-24T09:56:43;6.22;;;2.67;;
67556;SDS011;54387;53.526;49.300;2023-06-24T09:59:19;7.00;;;2.58;;
67556;SDS011;54387;53.526;49.300;2023-06-24T10:01:47;3.63;;;2.83;;
67556;SDS011;54387;53.526;49.300;2023-06-24T10:04:16;3.42;;;2.83;;
67556;SDS011;54387;53.526;49.300;2023-06-24T10:06:44;3.03;;;2.60;;
67556;SDS011;54387;53.526;49.300;2023-06-24T10:09:11;4.85;;;2.80;;
67556;SDS011;54387;53.526;49.300;2023-06-24T10:11:42;4.50;;;2.85;;
67556;SDS011;54387;53.526;49.300;2023-06-24T10:14:13;3.00;;;2.10;;
67556;SDS011;54387;53.526;49.300;2023-06-24T10:16:41;3.22;;;2.78;;
67556;SDS011;54387;53.526;49.300;2023-06-24T10:19:08;4.50;;;2.63;;
67556;SDS011;54387;53.526;49.300;2023-06-24T10:21:44;3.22;;;2.50;;
67556;SDS011;54387;53.526;49.300;2023-06-24T10:24:30;4.78;;;2.63;;
67556;SDS011;54387;53.526;49.300;2023-06-24T10:27:04;4.45;;;2.80;;
67556;SDS011;54387;53.526;49.300;2023-06-24T10:29:32;3.95;;;2.80;;
67556;SDS011;54387;53.526;49.300;2023-06-24T10:32:11;4.28;;;2.50;;
67556;SDS011;54387;53.526;49.300;2023-06-24T10:47:35;4.38;;;2.50;;
67556;SDS011;54387;53.526;49.300;2023-06-24T10:50:02;3.08;;;2.50;;
67556;SDS011;54387;53.526;49.300;2023-06-24T10:52:28;5.97;;;2.33;;
67556;SDS011;54387;53.526;49.300;2023-06-24T10:54:57;6.75;;;2.42;;
67556;SDS011;54387;53.526;49.300;2023-06-24T10:57:25;3.25;;;2.20;;
67556;SDS011;54387;53.526;49.300;2023-06-24T10:59:55;4.07;;;2.70;;
67556;SDS011;54387;53.526;49.300;2023-06-24T11:02:26;2.67;;;2.33;;
67556;SDS011;54387;53.526;49.300;2023-06-24T11:04:56;2.90;;;2.25;;
67556;SDS011;54387;53.526;49.300;2023-06-24T11:07:29;3.53;;;2.35;;
67556;SDS011;54387;53.526;49.300;2023-06-24T11:10:06;3.80;;;2.13;;
67556;SDS011;54387;53.526;49.300;2023-06-24T11:12:34;4.15;;;2.22;;
67556;SDS011;54387;53.526;49.300;2023-06-24T11:15:08;3.60;;;2.40;;
67556;SDS011;54387;53.526;49.300;2023-06-24T11:17:36;7.28;;;2.65;;
67556;SDS011;54387;53.526;49.300;2023-06-24T11:20:10;3.03;;;2.33;;
67556;SDS011;54387;53.526;49.300;2023-06-24T11:22:39;3.72;;;2.38;;
67556;SDS011;54387;53.526;49.300;2023-06-24T11:25:06;3.00;;;2.28;;
67556;SDS011;54387;53.526;49.300;2023-06-24T11:27:41;3.22;;;2.30;;
67556;SDS011;54387;53.526;49.300;2023-06-24T11:30:07;4.57;;;2.35;;
67556;SDS011;54387;53.526;49.300;2023-06-24T11:32:37;3.78;;;2.25;;
67556;SDS011;54387;53.526;49.300;2023-06-24T11:35:06;4.22;;;2.65;;
67556;SDS011;54387;53.526;49.300;2023-06-24T11:37:33;3.47;;;2.47;;
67556;SDS011;54387;53.526;49.300;2023-06-24T11:40:00;3.10;;;2.80;;
67556;SDS011;54387;53.526;49.300;2023-06-24T11:42:31;3.22;;;2.40;;
67556;SDS011;54387;53.526;49.300;2023-06-24T11:45:02;5.00;;;2.78;;
67556;SDS011;54387;53.526;49.300;2023-06-24T11:47:33;3.83;;;3.20;;
67556;SDS011;54387;53.526;49.300;2023-06-24T11:50:01;5.38;;;3.20;;
67556;SDS011;54387;53.526;49.300;2023-06-24T11:52:38;6.85;;;2.97;;
67556;SDS011;54387;53.526;49.300;2023-06-24T11:55:27;4.20;;;2.60;;
67556;SDS011;54387;53.526;49.300;2023-06-24T11:58:02;4.68;;;3.15;;
67556;SDS011;54387;53.526;49.300;2023-06-24T12:00:34;6.43;;;3.47;;
67556;SDS011;54387;53.526;49.300;2023-06-24T12:03:04;7.22;;;3.30;;
67556;SDS011;54387;53.526;49.300;2023-06-24T12:05:32;5.47;;;2.90;;
67556;SDS011;54387;53.526;49.300;2023-06-24T12:10:27;6.18;;;2.80;;
67556;SDS011;54387;53.526;49.300;2023-06-24T12:13:00;5.10;;;3.20;;
67556;SDS011;54387;53.526;49.300;2023-06-24T12:15:27;5.60;;;2.88;;
67556;SDS011;54387;53.526;49.300;2023-06-24T12:17:54;4.10;;;3.00;;
67556;SDS011;54387;53.526;49.300;2023-06-24T12:20:21;3.92;;;3.03;;
67556;SDS011;54387;53.526;49.300;2023-06-24T12:22:47;3.50;;;2.70;;
67556;SDS011;54387;53.526;49.300;2023-06-24T12:25:14;3.33;;;2.70;;
67556;SDS011;54387;53.526;49.300;2023-06-24T12:27:41;8.50;;;2.97;;
67556;SDS011;54387;53.526;49.300;2023-06-24T12:30:09;4.13;;;3.05;;
67556;SDS011;54387;53.526;49.300;2023-06-24T12:32:36;5.63;;;3.58;;
67556;SDS011;54387;53.526;49.300;2023-06-24T12:35:03;9.38;;;5.10;;
67556;SDS011;54387;53.526;49.300;2023-06-24T12:37:30;14.30;;;7.78;;
67556;SDS011;54387;53.526;49.300;2023-06-24T12:40:00;6.60;;;4.72;;
67556;SDS011;54387;53.526;49.300;2023-06-24T12:42:28;7.32;;;4.20;;
67556;SDS011;54387;53.526;49.300;2023-06-24T12:44:54;5.53;;;3.75;;
67556;SDS011;54387;53.526;49.300;2023-06-24T12:47:21;6.18;;;2.80;;
67556;SDS011;54387;53.526;49.300;2023-06-24T12:49:48;6.32;;;3.80;;
67556;SDS011;54387;53.526;49.300;2023-06-24T12:52:15;6.93;;;4.63;;
67556;SDS011;54387;53.526;49.300;2023-06-24T12:54:41;4.72;;;3.25;;
67556;SDS011;54387;53.526;49.300;2023-06-24T12:57:08;4.13;;;2.95;;
67556;SDS011;54387;53.526;49.300;2023-06-24T12:59:34;14.55;;;6.65;;
67556;SDS011;54387;53.526;49.300;2023-06-24T13:02:00;6.05;;;3.38;;
67556;SDS011;54387;53.526;49.300;2023-06-24T13:04:27;4.68;;;2.65;;
67556;SDS011;54387;53.526;49.300;2023-06-24T13:06:53;5.55;;;2.80;;
67556;SDS011;54387;53.526;49.300;2023-06-24T13:09:20;9.02;;;3.30;;
67556;SDS011;54387;53.526;49.300;2023-06-24T13:11:46;4.28;;;3.05;;
67556;SDS011;54387;53.526;49.300;2023-06-24T13:14:13;5.47;;;3.25;;
67556;SDS011;54387;53.526;49.300;2023-06-24T13:16:39;4.22;;;3.00;;
67556;SDS011;54387;53.526;49.300;2023-06-24T13:19:06;5.90;;;3.10;;
67556;SDS011;54387;53.526;49.300;2023-06-24T13:21:32;7.22;;;3.70;;
67556;SDS011;54387;53.526;49.300;2023-06-24T13:23:58;4.75;;;3.30;;
67556;SDS011;54387;53.526;49.300;2023-06-24T13:26:24;5.55;;;2.78;;
67556;SDS011;54387;53.526;49.300;2023-06-24T13:28:51;5.78;;;3.38;;
67556;SDS011;54387;53.526;49.300;2023-06-24T13:31:21;10.02;;;4.15;;
67556;SDS011;54387;53.526;49.300;2023-06-24T13:33:47;7.80;;;3.20;;
67556;SDS011;54387;53.526;49.300;2023-06-24T13:36:28;6.45;;;3.40;;
67556;SDS011;54387;53.526;49.300;2023-06-24T13:39:01;5.47;;;4.13;;
67556;SDS011;54387;53.526;49.300;2023-06-24T13:41:31;6.00;;;4.20;;
67556;SDS011;54387;53.526;49.300;2023-06-24T13:44:01;7.97;;;4.93;;
67556;SDS011;54387;53.526;49.300;2023-06-24T13:46:29;6.25;;;4.65;;
67556;SDS011;54387;53.526;49.300;2023-06-24T13:48:57;6.80;;;4.50;;
67556;SDS011;54387;53.526;49.300;2023-06-24T13:51:23;7.25;;;4.82;;
67556;SDS011;54387;53.526;49.300;2023-06-24T13:53:51;5.88;;;4.03;;
67556;SDS011;54387;53.526;49.300;2023-06-24T13:56:18;7.38;;;5.32;;
67556;SDS011;54387;53.526;49.300;2023-06-24T13:58:45;7.57;;;5.40;;
67556;SDS011;54387;53.526;49.300;2023-06-24T14:01:12;6.40;;;5.10;;
67556;SDS011;54387;53.526;49.300;2023-06-24T14:03:39;10.13;;;5.75;;
67556;SDS011;54387;53.526;49.300;2023-06-24T14:06:07;7.72;;;5.25;;
67556;SDS011;54387;53.526;49.300;2023-06-24T14:08:33;9.18;;;5.53;;
67556;SDS011;54387;53.526;49.300;2023-06-24T14:11:01;6.57;;;5.38;;
67556;SDS011;54387;53.526;49.300;2023-06-24T14:13:28;8.02;;;5.63;;
67556;SDS011;54387;53.526;49.300;2023-06-24T14:15:55;8.43;;;6.03;;
67556;SDS011;54387;53.526;49.300;2023-06-24T14:18:21;10.45;;;6.10;;
67556;SDS011;54387;53.526;49.300;2023-06-24T14:20:48;6.88;;;5.97;;
67556;SDS011;54387;53.526;49.300;2023-06-24T14:23:14;8.55;;;5.85;;
67556;SDS011;54387;53.526;49.300;2023-06-24T14:25:40;10.68;;;5.90;;
67556;SDS011;54387;53.526;49.300;2023-06-24T14:28:06;8.85;;;6.05;;
67556;SDS011;54387;53.526;49.300;2023-06-24T14:30:33;7.82;;;6.18;;
67556;SDS011;54387;53.526;49.300;2023-06-24T14:33:02;9.23;;;6.13;;
67556;SDS011;54387;53.526;49.300;2023-06-24T14:35:28;9.43;;;6.05;;
67556;SDS011;54387;53.526;49.300;2023-06-24T14:37:55;9.40;;;6.50;;
67556;SDS011;54387;53.526;49.300;2023-06-24T14:40:21;8.82;;;5.72;;
67556;SDS011;54387;53.526;49.300;2023-06-24T14:42:47;9.43;;;6.00;;
67556;SDS011;54387;53.526;49.300;2023-06-24T14:45:13;9.82;;;6.50;;
67556;SDS011;54387;53.526;49.300;2023-06-24T14:47:40;9.60;;;5.88;;
67556;SDS011;54387;53.526;49.300;2023-06-24T14:50:06;9.32;;;6.75;;
67556;SDS011;54387;53.526;49.300;2023-06-24T14:52:33;9.90;;;6.82;;
67556;SDS011;54387;53.526;49.300;2023-06-24T14:54:59;9.32;;;6.47;;
67556;SDS011;54387;53.526;49.300;2023-06-24T14:57:25;9.73;;;6.68;;
67556;SDS011;54387;53.526;49.300;2023-06-24T14:59:51;12.70;;;6.82;;
67556;SDS011;54387;53.526;49.300;2023-06-24T15:02:18;9.70;;;6.90;;